Date,TemperatureHighF,TemperatureAvgF,TemperatureLowF,DewpointHighF,DewpointAvgF,DewpointLowF,HumidityHigh,HumidityAvg,HumidityLow,PressureMaxIn,PressureMinIn,WindSpeedMaxMPH,WindSpeedAvgMPH,GustSpeedMaxMPH,PrecipitationSumIn
2013-1-1,77,68,58,64,61,56,95,81,61,30.20,30.03,5,1,12,0.00
2013-1-2,77,68,62,70,65,61,97,90,77,30.08,29.99,4,1,9,0.00
2013-1-3,78,69,62,71,66,61,99,91,75,30.11,30.02,4,1,12,0.00
2013-1-4,74,68,64,69,66,62,97,92,83,30.23,30.09,7,3,12,0.12
2013-1-5,78,69,62,68,64,61,97,87,69,30.24,30.14,7,3,15,0.01
2013-1-6,80,71,66,72,68,65,98,91,75,30.18,30.05,8,2,12,0.00
2013-1-7,74,70,67,69,68,64,97,92,82,30.15,30.06,7,3,14,0.07
2013-1-8,83,72,65,72,68,64,98,87,62,30.18,30.08,6,2,10,0.01
2013-1-9,84,75,70,72,70,68,97,85,62,30.24,30.14,7,3,14,0.01
2013-1-10,83,75,70,70,67,64,93,79,57,30.26,30.16,10,4,17,0.00
2013-1-11,82,73,68,69,66,62,94,81,53,30.24,30.11,5,2,12,0.00
2013-1-12,82,74,68,71,68,66,95,84,66,30.16,30.06,6,2,12,0.00
2013-1-13,81,73,67,69,67,64,93,82,66,30.12,30.04,7,3,17,0.00
2013-1-14,81,72,66,67,65,63,92,78,58,30.16,30.10,6,2,12,0.00
2013-1-15,82,72,65,69,66,63,96,81,55,30.12,30.04,5,2,10,0.00
2013-1-16,81,72,65,69,67,64,97,84,59,30.09,30.00,6,1,12,0.00
2013-1-17,78,69,62,72,64,52,98,85,68,30.13,30.01,18,6,29,0.00
2013-1-18,66,60,50,58,51,41,91,73,62,30.27,30.11,15,6,25,0.00
2013-1-19,74,66,60,66,62,58,96,87,72,30.23,30.09,6,4,14,0.00
2013-1-20,77,68,65,69,65,63,96,90,70,30.15,30.02,9,3,12,0.00
2013-1-21,72,67,63,66,64,57,95,89,81,30.09,30.00,12,4,16,0.00
2013-1-22,70,63,59,57,51,42,85,67,46,30.25,30.04,9,5,17,0.00
2013-1-23,73,62,54,51,44,39,66,53,34,30.32,30.22,9,4,16,0.00
2013-1-24,72,62,54,57,49,40,85,64,31,30.31,30.21,10,3,14,0.00
2013-1-25,75,63,54,58,53,50,90,73,43,30.29,30.18,6,2,10,0.00
2013-1-26,74,64,56,60,54,49,91,70,43,30.26,30.16,10,4,15,0.00
2013-1-27,79,67,57,61,57,54,91,72,44,30.27,30.18,6,3,14,0.00
2013-1-28,81,71,65,66,63,60,91,77,57,30.29,30.18,6,3,14,0.00
2013-1-29,80,72,66,69,66,62,94,84,67,30.22,30.09,6,3,15,0.00
2013-1-30,78,72,68,69,68,65,94,86,71,30.09,29.95,7,4,21,0.00
2013-1-31,71,62,52,69,52,39,95,72,57,30.20,29.96,14,6,23,0.12
2013-2-1,70,58,47,44,39,36,77,53,33,30.32,30.20,10,4,20,0.01
2013-2-2,75,61,50,58,47,37,86,62,39,30.27,30.12,7,4,14,0.00
2013-2-3,71,61,52,57,48,35,88,67,27,30.21,30.09,10,4,17,0.00
2013-2-4,70,60,51,55,47,26,95,68,19,30.15,30.03,6,2,12,0.00
2013-2-5,77,65,54,62,56,47,93,73,51,30.08,29.99,5,2,10,0.00
2013-2-6,79,68,59,65,62,57,93,80,61,30.10,30.01,5,1,8,0.00
2013-2-7,79,71,65,67,66,63,95,84,65,30.06,29.93,6,2,18,0.00
2013-2-8,75,70,62,69,66,60,96,86,64,30.06,29.90,10,6,18,0.03
2013-2-9,78,67,57,65,60,56,97,79,53,30.15,30.04,7,4,17,0.00
2013-2-10,81,72,66,66,63,59,84,75,57,30.22,30.12,9,4,15,0.00
2013-2-11,80,72,67,68,66,64,92,82,67,30.19,30.08,9,4,17,0.00
2013-2-12,80,73,68,72,69,66,96,88,74,30.10,29.96,6,2,20,0.01
2013-2-13,81,74,71,74,71,65,98,92,78,29.99,29.90,7,4,17,0.01
2013-2-14,73,64,61,71,61,58,97,91,78,30.02,29.90,10,4,21,1.78
2013-2-15,68,64,61,63,61,57,96,90,81,30.05,29.94,5,2,10,0.09
2013-2-16,69,62,58,61,54,45,93,74,56,30.10,29.92,16,8,30,0.01
2013-2-17,60,52,44,45,32,22,59,47,34,30.32,30.09,16,6,28,0.01
2013-2-18,71,57,45,52,42,30,73,58,45,30.32,30.20,9,4,15,0.00
2013-2-19,77,66,56,65,59,51,95,79,62,30.20,30.09,5,2,10,0.00
2013-2-20,80,68,59,66,62,58,98,83,51,30.10,29.99,7,2,12,0.00
2013-2-21,81,71,63,68,65,61,97,83,59,30.08,29.98,5,2,12,0.00
2013-2-22,82,73,67,72,68,65,96,87,67,30.07,29.99,7,3,16,0.00
2013-2-23,81,74,69,74,71,68,97,90,76,30.03,29.91,6,3,16,0.01
2013-2-24,83,74,69,74,71,68,99,91,72,29.98,29.89,9,2,14,0.01
2013-2-25,82,75,69,76,71,68,98,90,79,29.91,29.79,4,2,12,0.01
2013-2-26,80,74,70,74,71,65,95,90,80,29.89,29.74,8,4,20,0.06
2013-2-27,74,69,66,68,63,60,92,81,68,29.98,29.86,8,4,14,0.01
2013-2-28,71,66,61,61,58,56,88,77,60,30.02,29.93,9,3,17,0.00
2013-3-1,67,62,58,60,52,44,80,70,60,30.02,29.91,9,4,15,0.00
2013-3-2,61,57,53,48,45,43,79,65,58,30.05,29.98,12,5,21,0.01
2013-3-3,57,53,44,49,45,36,94,75,59,30.16,29.98,14,6,24,0.25
2013-3-4,63,54,45,50,43,38,86,69,46,30.23,30.13,8,4,16,0.01
2013-3-5,74,61,49,61,55,47,97,81,58,30.17,30.08,5,1,12,0.00
2013-3-6,69,63,57,64,54,46,92,74,57,30.13,30.00,16,8,26,0.00
2013-3-7,60,55,47,50,43,35,84,64,44,30.22,30.10,13,6,18,0.00
2013-3-8,72,60,48,55,49,43,89,70,39,30.22,30.12,8,4,13,0.00
2013-3-9,76,63,53,59,52,45,92,70,34,30.20,30.10,7,2,13,0.00
2013-3-10,79,67,60,62,57,54,88,71,46,30.15,30.03,9,3,15,0.00
2013-3-11,79,69,62,65,61,58,90,77,56,30.09,29.93,7,4,17,0.00
2013-3-12,73,67,61,68,64,54,93,88,79,30.03,29.88,10,5,20,0.00
2013-3-13,74,62,56,55,50,40,89,67,30,30.16,30.03,12,6,20,0.00
2013-3-14,69,60,54,52,43,30,80,57,24,30.24,30.14,13,6,22,0.00
2013-3-15,73,59,49,52,44,31,83,61,25,30.29,30.15,10,4,16,0.00
2013-3-16,75,63,53,58,52,44,95,70,34,30.19,30.08,5,2,12,0.00
2013-3-17,78,66,57,63,59,56,97,80,56,30.12,30.00,7,2,12,0.00
2013-3-18,75,68,63,69,65,61,96,90,77,30.04,29.91,9,3,14,1.24
2013-3-19,78,70,66,68,66,65,97,89,72,30.01,29.83,7,3,17,0.02
2013-3-20,75,68,64,66,64,63,97,89,70,30.01,29.81,13,3,26,0.12
2013-3-21,71,64,57,63,53,40,94,69,32,29.96,29.85,10,6,20,0.10
2013-3-22,78,66,55,70,58,43,95,76,61,29.98,29.88,7,2,13,0.01
2013-3-23,81,75,70,74,71,68,98,89,75,29.95,29.81,8,3,16,0.00
2013-3-24,82,75,71,74,72,68,96,89,78,29.85,29.69,9,4,20,0.00
2013-3-25,75,68,58,73,59,46,95,74,57,30.04,29.75,15,8,29,0.00
2013-3-26,61,57,51,49,44,39,74,62,50,30.24,30.03,17,8,31,0.00
2013-3-27,61,54,46,47,40,34,74,62,40,30.30,30.20,12,6,20,0.00
2013-3-28,70,57,46,52,44,35,85,64,30,30.29,30.18,10,5,17,0.00
2013-3-29,77,62,52,55,47,39,85,61,27,30.31,30.18,12,4,15,0.00
2013-3-30,77,66,56,58,54,49,91,68,44,30.25,30.13,6,2,12,0.00
2013-3-31,81,70,61,64,60,-100,91,75,53,30.18,30.02,6,3,15,0.00
2013-4-1,81,73,66,72,69,65,97,87,71,30.05,29.97,8,3,14,0.00
2013-4-2,79,72,67,69,67,65,98,85,65,30.09,29.99,9,4,13,0.00
2013-4-3,84,74,67,71,68,63,94,82,63,30.06,29.94,8,4,18,0.00
2013-4-4,78,72,66,73,69,64,96,91,83,30.02,29.86,12,4,24,0.55
2013-4-5,71,68,64,68,64,57,96,85,71,30.01,29.81,13,7,21,1.03
2013-4-6,72,65,59,63,59,55,92,80,62,30.08,29.96,12,6,18,0.01
2013-4-7,84,72,64,67,63,58,93,74,43,30.12,30.02,9,4,18,0.00
2013-4-8,86,75,66,67,64,61,87,71,45,30.11,30.02,7,3,15,0.00
2013-4-9,85,75,67,69,65,62,90,73,50,30.12,30.04,8,3,17,0.00
2013-4-10,88,77,69,73,69,66,91,79,58,30.09,29.95,8,4,14,0.00
2013-4-11,87,79,73,75,73,71,94,83,64,29.98,29.84,10,6,18,0.00
2013-4-12,86,79,75,77,74,73,95,88,72,29.93,29.85,6,4,16,0.00
2013-4-13,87,78,75,74,71,67,93,79,55,29.96,29.84,9,4,20,0.00
2013-4-14,88,79,73,77,73,69,93,82,60,29.96,29.84,7,4,18,0.00
2013-4-15,89,78,67,76,71,64,92,79,63,30.05,29.93,9,3,13,0.16
2013-4-16,92,80,72,74,72,69,94,76,53,30.11,30.00,11,4,21,0.11
2013-4-17,88,79,72,73,70,66,90,74,51,30.11,29.98,9,4,16,0.00
2013-4-18,90,80,74,75,71,65,86,74,54,30.04,29.93,9,4,17,0.00
2013-4-19,87,80,76,76,74,71,90,81,64,30.01,29.93,10,5,20,0.00
2013-4-20,86,79,73,76,73,70,95,82,62,30.10,29.95,10,4,16,0.06
2013-4-21,88,75,65,73,69,64,96,83,57,30.10,29.98,8,4,16,0.55
2013-4-22,84,75,69,74,69,67,96,82,61,30.07,29.93,11,3,17,0.83
2013-4-23,88,76,67,70,66,63,95,74,46,30.07,29.97,12,6,21,0.03
2013-4-24,85,75,67,69,66,64,91,74,52,30.12,30.04,9,4,18,0.00
2013-4-25,87,77,70,70,68,64,90,73,51,30.18,30.06,10,5,17,0.00
2013-4-26,87,78,68,66,64,63,87,65,46,30.22,30.11,9,4,17,0.00
2013-4-27,86,78,70,67,64,61,86,65,46,30.19,30.04,8,5,16,0.00
2013-4-28,89,78,69,71,66,-100,82,70,47,30.09,29.95,10,5,20,0.00
2013-4-29,89,78,70,74,68,64,84,73,56,30.01,29.92,12,4,18,0.00
2013-4-30,89,79,72,75,72,69,94,79,62,29.97,29.90,9,3,14,0.00
2013-5-1,78,74,69,74,71,67,95,90,82,29.99,29.81,16,4,26,0.56
2013-5-2,76,71,69,71,69,67,96,92,79,29.93,29.80,6,3,13,0.45
2013-5-3,83,75,68,73,69,66,96,84,67,29.84,29.71,12,4,20,0.01
2013-5-4,82,76,71,72,68,66,89,79,68,29.82,29.69,16,10,25,0.00
2013-5-5,78,72,69,68,60,55,89,67,49,29.96,29.78,14,10,24,0.00
2013-5-6,80,73,69,66,63,58,78,70,58,30.01,29.92,9,5,14,0.00
2013-5-7,81,74,66,63,61,59,81,66,53,30.06,29.98,10,6,18,0.00
2013-5-8,86,74,64,65,62,59,93,70,43,30.14,30.04,8,2,12,0.00
2013-5-9,88,75,65,67,63,56,90,69,34,30.14,30.06,6,2,9,0.00
2013-5-10,90,77,69,75,68,-100,93,78,57,30.12,30.00,7,2,12,0.00
2013-5-11,89,81,75,78,75,73,94,83,64,30.05,29.98,5,2,13,0.00
2013-5-12,89,80,76,77,74,-100,94,82,65,30.04,29.91,11,4,16,0.00
2013-5-13,85,78,72,74,69,56,91,75,56,30.11,29.99,12,5,20,0.00
2013-5-14,87,75,65,62,58,53,79,58,32,30.17,30.08,11,5,20,0.00
2013-5-15,88,77,69,65,61,59,75,59,43,30.17,30.05,6,4,14,0.00
2013-5-16,89,71,69,67,42,-100,81,64,38,30.10,29.98,8,4,15,0.00
2013-5-17,90,78,71,70,61,-100,86,68,46,30.07,30.00,9,4,15,0.00
2013-5-18,92,81,73,73,70,68,95,72,50,30.09,30.00,10,3,15,0.00
2013-5-19,91,81,76,73,71,68,91,74,52,30.09,29.97,7,2,13,0.00
2013-5-20,93,80,74,74,72,68,89,78,51,30.05,29.95,16,3,39,0.06
2013-5-21,92,79,71,75,71,68,93,77,49,30.00,29.89,9,4,18,0.04
2013-5-22,90,80,72,76,73,68,95,80,60,29.95,29.88,10,4,16,0.00
2013-5-23,89,81,75,73,72,70,90,76,58,30.02,29.90,12,5,15,0.00
2013-5-24,91,82,75,77,74,71,94,79,52,30.06,29.96,12,4,21,0.00
2013-5-25,92,82,73,75,69,65,90,68,43,30.13,30.02,10,4,21,0.00
2013-5-26,89,80,72,68,65,60,83,64,39,30.17,30.06,9,5,20,0.00
2013-5-27,88,77,71,74,68,64,93,76,56,30.15,30.01,11,4,23,1.11
2013-5-28,87,78,74,77,72,70,91,82,64,30.10,30.00,9,5,17,0.04
2013-5-29,83,77,74,74,72,69,93,84,69,30.06,29.98,12,6,23,0.01
2013-5-30,87,78,73,76,72,69,91,81,64,30.03,29.94,12,6,21,0.04
2013-5-31,87,78,74,76,73,71,96,85,66,30.03,29.97,9,4,22,0.64
2013-6-1,90,80,74,77,74,72,96,85,62,30.02,29.94,6,2,12,0.52
2013-6-2,89,80,74,78,74,-100,96,85,68,29.99,29.90,6,2,16,0.06
2013-6-3,84,79,75,78,75,73,92,86,77,29.99,29.90,7,2,16,0.14
2013-6-4,81,78,74,76,74,72,93,88,82,30.01,29.93,9,4,21,0.06
2013-6-5,79,78,76,76,75,73,96,92,86,29.99,29.84,9,6,18,0.34
2013-6-6,80,77,72,78,74,70,97,93,83,29.85,29.74,13,6,25,2.03
2013-6-7,84,78,76,76,74,72,97,89,69,29.96,29.80,6,2,13,0.01
2013-6-8,89,82,77,81,77,73,93,85,74,30.08,29.94,5,2,14,0.00
2013-6-9,92,83,77,77,76,74,94,80,60,30.08,29.98,9,3,16,0.01
2013-6-10,93,84,77,78,76,74,94,79,55,30.06,29.98,7,3,13,0.01
2013-6-11,95,83,77,79,76,70,93,79,55,30.07,29.97,13,3,22,0.03
2013-6-12,93,79,72,80,75,70,94,88,65,30.10,29.99,13,2,25,1.49
2013-6-13,91,81,73,78,75,72,97,81,62,30.04,29.92,8,3,14,0.01
2013-6-14,89,83,78,77,75,74,88,78,63,29.96,29.88,9,4,15,0.00
2013-6-15,91,84,79,77,75,73,89,75,62,30.03,29.92,10,4,14,0.00
2013-6-16,95,86,78,77,76,74,91,72,52,30.07,30.00,8,3,14,0.00
2013-6-17,99,86,79,79,75,73,92,73,44,30.06,29.98,5,2,12,0.00
2013-6-18,94,86,81,79,77,75,89,76,56,30.05,29.96,6,2,13,0.00
2013-6-19,96,84,75,79,76,72,93,77,53,30.03,29.96,10,3,24,0.99
2013-6-20,91,82,76,80,76,73,93,82,60,30.07,30.01,4,2,12,1.00
2013-6-22,93,86,74,77,74,70,93,69,49,30.10,30.00,12,3,21,1.31
2013-6-23,96,82,77,78,75,70,93,82,50,30.11,30.03,8,2,16,1.34
2013-6-24,96,82,77,77,75,73,94,81,51,30.14,30.04,7,3,12,0.68
2013-6-25,94,82,77,78,75,73,95,81,55,30.12,30.00,9,3,26,0.09
2013-6-26,92,81,77,79,75,72,92,81,61,30.06,29.99,9,3,15,0.09
2013-6-27,93,82,75,78,74,72,94,78,56,30.03,29.93,7,2,16,0.00
2013-6-28,93,85,78,77,75,72,89,73,56,29.97,29.86,8,2,13,0.00
2013-6-29,93,86,80,78,76,74,87,73,56,29.90,29.83,8,3,16,0.01
2013-6-30,91,84,79,79,77,74,89,78,65,29.88,29.82,10,5,21,0.07
2013-7-1,86,79,75,79,75,73,95,87,74,29.98,29.87,12,4,25,2.12
2013-7-2,87,79,73,79,75,71,96,87,74,30.07,29.94,8,2,22,0.42
2013-7-3,89,78,75,79,74,72,94,89,72,30.09,30.02,7,3,16,0.38
2013-7-4,90,79,74,79,74,71,95,85,67,30.12,30.03,6,3,22,0.50
2013-7-5,90,79,74,78,74,72,96,86,68,30.12,30.02,10,3,26,0.85
2013-7-6,93,82,76,78,76,73,95,83,56,30.09,29.99,7,2,13,0.42
2013-7-7,94,83,77,77,76,73,93,79,53,30.09,29.99,9,3,17,0.07
2013-7-8,92,80,77,77,73,-100,90,82,54,30.13,30.05,10,3,24,0.34
2013-7-9,89,79,75,77,74,72,95,87,62,30.13,30.03,12,1,22,0.19
2013-7-10,87,79,75,76,71,-100,95,81,66,30.07,29.97,7,1,13,0.03
2013-7-11,88,82,76,78,75,72,94,80,63,30.02,29.92,6,2,14,0.15
2013-7-12,91,82,77,78,75,73,94,80,61,29.96,29.89,6,1,10,0.09
2013-7-13,92,82,76,79,75,72,92,80,62,29.97,29.89,6,3,18,0.05
2013-7-14,80,78,75,75,74,72,92,88,85,30.06,29.93,7,3,17,2.16
2013-7-15,89,78,75,77,73,71,90,84,67,30.07,29.99,5,2,12,0.25
2013-7-16,87,79,76,75,73,71,89,82,66,30.11,30.02,14,5,26,0.02
2013-7-17,85,79,74,75,73,69,91,83,69,30.11,30.01,11,4,22,0.10
2013-7-18,80,76,73,75,73,70,92,90,85,30.11,30.03,5,2,13,0.84
2013-7-19,89,79,72,79,74,70,92,85,68,30.11,30.02,5,2,12,0.01
2013-7-20,93,82,76,81,76,73,94,83,62,30.10,30.01,7,2,13,0.00
2013-7-21,91,84,78,81,78,75,95,85,67,30.12,30.03,5,1,9,0.09
2013-7-22,92,83,78,79,77,75,94,82,60,30.13,30.06,5,2,12,0.01
2013-7-23,93,84,78,78,76,74,95,81,60,30.10,29.98,8,2,13,0.00
2013-7-24,92,85,79,76,74,73,83,71,55,30.02,29.93,10,5,16,0.00
2013-7-25,91,84,81,78,75,73,81,75,67,30.02,29.91,10,6,16,0.00
2013-7-26,92,85,78,79,77,74,92,78,64,30.01,29.95,12,6,29,0.30
2013-7-27,93,86,80,79,77,75,91,74,61,29.99,29.92,11,5,15,0.21
2013-7-28,94,85,77,77,75,72,91,73,52,30.04,29.93,7,2,12,0.00
2013-7-29,96,82,75,79,76,73,96,82,54,30.12,30.01,9,2,20,1.18
2013-7-30,92,80,75,80,76,73,96,89,65,30.15,30.06,9,1,21,2.09
2013-7-31,93,82,78,79,77,75,95,86,62,30.11,29.99,3,1,9,0.19
2013-8-1,94,84,78,78,75,71,93,76,55,30.03,29.92,7,2,12,0.00
2013-8-2,93,83,77,79,76,74,93,79,62,30.03,29.93,7,1,12,0.00
2013-8-3,94,84,79,79,77,74,93,80,60,30.10,30.00,5,1,12,0.00
2013-8-4,95,85,80,79,78,76,92,79,58,30.09,30.00,10,3,15,0.00
2013-8-5,95,86,82,80,78,75,87,77,59,30.04,29.93,9,4,15,0.04
2013-8-6,93,85,80,79,77,75,92,78,60,29.97,29.88,7,2,17,0.01
2013-8-7,95,84,78,79,76,74,91,80,57,29.95,29.88,6,2,14,0.00
2013-8-8,96,83,75,79,76,73,94,83,54,29.99,29.90,9,3,20,1.17
2013-8-9,92,80,74,79,76,72,95,87,61,30.04,29.93,10,3,25,1.74
2013-8-10,96,85,77,80,76,73,92,76,53,30.09,30.00,6,3,13,0.03
2013-8-11,98,85,79,79,77,75,92,79,49,30.11,30.02,6,3,13,0.00
2013-8-12,95,85,78,77,74,68,92,73,44,30.12,29.98,6,3,14,0.00
2013-8-13,95,83,79,79,73,-100,91,75,56,30.04,29.93,7,3,13,0.03
2013-8-14,94,83,79,78,72,-100,89,73,49,30.01,29.91,4,1,12,0.03
2013-8-15,85,72,75,80,55,-100,95,80,76,30.04,29.94,4,1,12,0.55
2013-8-16,95,82,78,80,71,-100,95,77,59,30.03,29.94,5,1,12,0.01
2013-8-21,92,83,79,80,77,75,93,83,61,30.05,29.96,8,4,15,0.06
2013-8-22,95,82,76,79,76,72,93,83,55,30.03,29.93,7,3,18,0.06
2013-8-23,95,82,77,79,77,75,96,85,58,29.99,29.92,6,2,14,0.33
2013-8-24,95,82,77,80,77,74,97,84,57,30.11,29.96,7,2,15,0.35
2013-8-25,89,78,76,79,72,-100,95,88,69,30.12,30.01,6,3,16,0.72
2013-8-26,92,80,75,79,76,73,96,88,61,30.11,29.98,6,2,12,0.31
2013-8-27,89,77,74,77,74,72,96,90,68,30.04,29.97,7,2,21,0.26
2013-9-1,93,81,77,80,73,-100,95,82,62,29.98,29.91,7,1,20,0.20
2013-9-2,90,80,78,80,76,74,95,88,69,30.01,29.92,7,1,13,0.40
2013-9-3,92,82,77,78,76,71,94,82,60,30.02,29.91,6,1,13,0.01
2013-9-4,94,81,74,79,76,71,93,86,61,30.05,29.94,9,2,26,0.31
2013-9-5,94,83,77,81,77,74,96,83,59,30.06,29.97,6,2,12,0.18
2013-9-6,95,84,74,80,77,71,95,81,57,30.03,29.90,14,4,26,0.22
2013-9-7,92,80,74,79,75,73,97,87,62,29.98,29.89,9,3,24,1.40
2013-9-8,91,78,74,77,71,-100,97,84,57,29.94,29.85,8,2,15,0.04
2013-9-9,93,82,76,77,75,73,95,81,57,29.98,29.89,5,2,15,0.03
2013-9-11,89,80,76,78,76,74,94,86,65,30.02,29.96,8,3,17,0.13
2013-9-12,90,81,76,78,76,73,94,84,62,30.00,29.86,5,2,12,0.03
2013-9-13,91,82,75,77,74,71,96,80,52,29.89,29.80,7,2,10,0.01
2013-9-14,93,84,77,78,76,72,95,78,55,29.94,29.82,7,2,10,0.01
2013-9-15,83,78,76,78,71,-100,93,85,78,30.05,29.91,7,2,23,0.17
2013-9-16,87,78,76,79,75,73,95,90,69,30.02,29.94,7,4,21,0.09
2013-9-17,86,77,74,78,75,73,97,93,75,30.01,29.90,12,3,23,1.19
2013-9-18,76,75,74,75,74,73,97,96,95,29.97,29.92,3,2,9,1.19
2013-9-19,91,79,74,78,75,73,97,88,64,30.01,29.93,7,2,12,0.36
2013-9-20,89,81,75,74,72,70,95,77,57,30.00,29.87,6,3,15,0.06
2013-9-21,90,81,75,75,73,70,90,77,58,29.92,29.77,5,2,9,0.00
2013-10-2,89,80,77,77,74,72,92,82,62,30.01,29.92,9,4,15,0.20
2013-10-3,89,80,75,78,74,72,97,85,63,30.03,29.93,9,2,14,0.80
2013-10-4,88,81,75,77,73,69,96,79,60,30.05,29.96,5,2,12,0.01
2013-10-5,87,80,76,75,73,70,88,78,61,30.03,29.91,6,2,10,0.01
2013-10-6,89,81,74,76,74,72,93,79,58,29.96,29.86,7,2,10,0.00
2013-10-7,87,82,76,79,76,74,92,83,73,29.88,29.79,15,4,25,0.08
2013-10-8,88,82,77,74,72,69,91,75,62,29.92,29.83,11,5,15,0.44
2013-10-9,84,78,74,75,72,70,96,85,69,30.00,29.91,6,3,13,0.26
2013-10-10,86,77,70,74,70,68,94,81,58,30.03,29.93,7,3,15,0.00
2013-10-16,88,77,71,74,71,69,96,82,56,29.95,29.88,8,3,12,0.00
2013-10-17,89,79,72,74,71,67,96,78,50,29.96,29.88,6,2,9,0.00
2013-10-18,90,80,73,75,72,69,95,79,53,29.97,29.88,7,1,10,0.00
2013-10-19,89,82,76,78,76,73,95,82,66,29.94,29.85,5,2,10,0.09
2013-10-20,90,80,76,77,73,-100,97,81,60,29.94,29.85,6,1,10,0.01
2013-10-21,90,81,75,78,75,73,96,83,64,29.98,29.90,2,0,9,0.00
2013-10-22,89,81,75,79,76,73,95,85,70,29.95,29.82,3,0,13,0.02
2013-10-23,82,81,78,75,72,67,89,74,61,29.89,29.85,7,4,13,0.03
2013-10-24,75,72,68,63,62,61,81,73,65,30.13,30.05,3,1,0,0.00
2013-10-25,79,73,64,64,62,60,86,69,54,30.20,30.11,4,1,0,0.00
2013-10-26,82,72,64,65,61,55,87,71,42,30.18,30.06,7,2,14,0.00
2013-10-27,81,70,63,65,59,-100,90,71,48,30.11,30.03,6,3,11,0.00
2013-10-28,84,72,65,67,63,-100,92,75,48,30.16,30.07,6,2,0,0.00
2013-10-29,85,76,67,69,67,64,90,74,55,30.20,30.08,8,4,0,0.00
2013-10-30,85,76,69,70,67,64,93,76,50,30.19,30.05,7,3,0,0.00
2013-11-12,84,75,69,71,68,67,94,81,58,30.10,29.98,7,3,0,0.00
2013-11-13,73,68,62,69,59,52,90,75,67,30.23,30.03,11,8,0,0.00
2013-11-14,77,68,61,62,58,52,81,70,53,30.24,30.12,8,5,0,0.00
2013-11-15,81,73,67,69,65,59,81,76,67,30.15,30.00,6,4,0,0.00
2013-11-16,79,72,70,72,66,-100,95,84,72,30.08,30.00,6,4,0,0.00
2013-11-17,84,76,70,73,70,67,95,85,68,30.06,29.98,4,2,0,0.00
2013-11-18,84,75,69,74,71,68,97,88,68,30.03,29.93,6,2,0,0.00